Time;durP1;ratioP1;P1;durP2;ratioP2;P2;SDS_P1;SDS_P2;PMS_P1;PMS_P2;Temp;Humidity;BMP_temperature;BMP_pressure;BME280_temperature;BME280_humidity;BME280_pressure;Samples;Min_cycle;Max_cycle;Signal;HPM_P1;HPM_P2
2023/03/17 00:00:43;;;;;;;5.17;3.30;;;2.30;75.30;;;;;;5055955;28;20189;-81
2023/03/17 00:03:26;;;;;;;2.47;2.27;;;2.40;75.20;;;;;;5073587;28;20209;-85
2023/03/17 00:05:53;;;;;;;2.70;2.47;;;2.30;75.30;;;;;;5074158;28;20245;-80
2023/03/17 00:08:20;;;;;;;3.00;2.70;;;2.20;75.80;;;;;;5057686;28;20167;-77
2023/03/17 00:10:46;;;;;;;2.93;2.47;;;2.20;75.80;;;;;;5072922;28;20216;-81
2023/03/17 00:13:13;;;;;;;6.17;3.03;;;2.30;75.60;;;;;;5073297;28;20169;-82
2023/03/17 00:15:39;;;;;;;3.03;2.77;;;2.30;75.60;;;;;;5072975;28;20186;-74
2023/03/17 00:18:12;;;;;;;3.23;2.93;;;2.30;75.60;;;;;;5073609;28;20198;-77
2023/03/17 00:20:38;;;;;;;3.90;2.37;;;2.30;75.70;;;;;;5073066;28;20190;-82
2023/03/17 00:23:04;;;;;;;3.10;2.77;;;2.30;75.60;;;;;;5074177;28;20209;-77
2023/03/17 00:25:33;;;;;;;3.40;2.70;;;2.40;75.60;;;;;;5091698;28;20178;-75
2023/03/17 00:28:00;;;;;;;3.07;2.80;;;2.40;75.40;;;;;;5091070;28;20179;-74
2023/03/17 00:30:27;;;;;;;2.50;2.30;;;2.40;75.60;;;;;;5055431;28;20215;-77
2023/03/17 00:32:56;;;;;;;2.80;2.50;;;2.30;75.50;;;;;;5072370;28;20175;-74
2023/03/17 00:35:29;;;;;;;2.70;2.50;;;2.20;75.80;;;;;;5078907;28;20175;-75
2023/03/17 00:37:56;;;;;;;2.50;2.30;;;2.20;75.90;;;;;;5074122;28;20698;-76
2023/03/17 00:40:25;;;;;;;3.40;2.60;;;2.20;75.90;;;;;;5072414;28;20186;-74
2023/03/17 00:42:52;;;;;;;3.23;2.93;;;2.20;75.80;;;;;;5072114;28;20257;-75
2023/03/17 00:45:23;;;;;;;3.07;2.70;;;2.30;75.60;;;;;;5072324;28;20230;-74
2023/03/17 00:47:50;;;;;;;4.43;2.70;;;2.20;75.80;;;;;;5072727;28;20197;-74
2023/03/17 00:50:23;;;;;;;3.03;2.73;;;2.10;76.30;;;;;;5087448;28;20174;-78
2023/03/17 00:52:51;;;;;;;3.00;2.70;;;2.10;76.30;;;;;;5073779;28;20160;-86
2023/03/17 00:55:20;;;;;;;2.70;2.40;;;2.10;76.50;;;;;;5054574;28;20542;-85
2023/03/17 00:57:47;;;;;;;3.37;2.57;;;2.00;76.70;;;;;;5073255;28;20230;-83
2023/03/17 01:00:19;;;;;;;3.93;2.97;;;1.90;77.10;;;;;;5072872;28;20166;-77
2023/03/17 01:02:46;;;;;;;2.87;2.33;;;1.90;77.30;;;;;;5073634;28;20186;-86
2023/03/17 01:05:12;;;;;;;2.47;2.27;;;1.90;77.10;;;;;;5072503;28;20179;-85
2023/03/17 01:07:39;;;;;;;4.23;2.50;;;1.80;77.20;;;;;;5072770;28;20223;-86
2023/03/17 01:10:13;;;;;;;5.07;2.60;;;1.90;77.30;;;;;;5072690;28;20163;-85
2023/03/17 01:12:39;;;;;;;2.70;2.53;;;1.90;77.20;;;;;;5072712;28;20253;-84
2023/03/17 01:15:05;;;;;;;2.90;2.60;;;1.90;76.90;;;;;;5074402;28;20176;-85
2023/03/17 01:17:32;;;;;;;2.80;2.60;;;1.90;77.60;;;;;;5081518;28;20531;-85
2023/03/17 01:19:58;;;;;;;2.60;2.37;;;2.00;76.80;;;;;;5073307;28;20166;-86
2023/03/17 01:22:24;;;;;;;3.00;2.70;;;1.90;77.60;;;;;;5072557;28;20171;-85
2023/03/17 01:24:50;;;;;;;2.57;2.37;;;1.90;77.00;;;;;;5073578;28;20690;-87
2023/03/17 01:27:18;;;;;;;3.00;2.80;;;1.90;76.70;;;;;;5085574;28;20166;-83
2023/03/17 01:29:43;;;;;;;2.63;2.43;;;1.90;77.40;;;;;;5077431;28;20228;-81
2023/03/17 01:32:10;;;;;;;2.50;2.30;;;1.90;76.90;;;;;;5072957;28;20616;-78
2023/03/17 01:34:36;;;;;;;2.63;2.40;;;1.80;77.00;;;;;;5057132;28;20178;-81
2023/03/17 01:37:02;;;;;;;3.17;2.13;;;1.80;77.80;;;;;;5076456;28;20188;-80
2023/03/17 01:39:27;;;;;;;2.10;2.00;;;1.90;77.20;;;;;;5073047;28;20249;-84
2023/03/17 01:41:56;;;;;;;2.57;2.37;;;1.90;77.00;;;;;;5072211;28;20257;-87
2023/03/17 01:44:22;;;;;;;2.67;2.27;;;2.00;77.00;;;;;;5072544;28;20717;-79
2023/03/17 01:46:48;;;;;;;4.70;2.60;;;2.00;76.70;;;;;;5072639;28;20519;-86
2023/03/17 01:49:29;;;;;;;2.67;2.47;;;2.00;76.90;;;;;;5056071;28;20269;-87
2023/03/17 01:52:08;;;;;;;2.50;2.30;;;2.00;76.60;;;;;;5073600;28;20633;-85
2023/03/17 01:54:50;;;;;;;3.03;2.63;;;1.90;76.90;;;;;;5081071;28;20173;-87
2023/03/17 01:57:28;;;;;;;2.90;2.70;;;1.90;76.80;;;;;;5086468;28;20164;-85
2023/03/17 02:00:22;;;;;;;2.43;2.30;;;2.10;76.90;;;;;;5062751;28;20546;-86
2023/03/17 02:02:54;;;;;;;3.17;2.37;;;2.10;76.70;;;;;;5076079;28;20710;-74
2023/03/17 02:05:24;;;;;;;2.33;2.23;;;2.10;76.90;;;;;;5061991;28;20171;-81
2023/03/17 02:07:54;;;;;;;2.47;2.17;;;2.10;77.00;;;;;;5074529;28;20257;-79
2023/03/17 02:10:23;;;;;;;2.20;2.00;;;2.00;77.10;;;;;;5075648;28;20156;-78
2023/03/17 02:12:54;;;;;;;3.33;2.40;;;1.80;77.50;;;;;;5074950;28;20174;-72
2023/03/17 02:15:20;;;;;;;2.30;2.20;;;1.80;77.70;;;;;;5075420;28;20299;-73
2023/03/17 02:17:46;;;;;;;2.13;2.03;;;1.90;77.20;;;;;;5075522;28;20181;-73
2023/03/17 02:20:14;;;;;;;2.40;2.30;;;1.90;77.30;;;;;;5077482;28;20183;-75
2023/03/17 02:22:42;;;;;;;2.40;2.20;;;1.80;77.30;;;;;;5081677;28;20173;-74
2023/03/17 02:25:07;;;;;;;3.83;2.60;;;1.90;77.40;;;;;;5094041;28;20174;-78
2023/03/17 02:27:38;;;;;;;2.60;2.40;;;1.90;77.50;;;;;;5063126;28;20178;-84
2023/03/17 02:30:06;;;;;;;2.60;2.20;;;1.90;77.50;;;;;;5075538;28;20159;-80
2023/03/17 02:32:35;;;;;;;2.50;2.30;;;1.90;77.40;;;;;;5075626;28;20266;-80
2023/03/17 02:35:01;;;;;;;2.37;2.20;;;1.90;77.30;;;;;;5075727;28;20216;-86
2023/03/17 02:37:27;;;;;;;2.50;2.30;;;1.90;77.60;;;;;;5075566;28;20203;-83
2023/03/17 02:39:52;;;;;;;2.73;2.53;;;1.80;77.70;;;;;;5057976;28;20174;-84
2023/03/17 02:42:19;;;;;;;2.83;2.63;;;1.70;78.00;;;;;;5077408;28;20177;-84
2023/03/17 02:44:45;;;;;;;2.73;2.23;;;1.80;78.10;;;;;;5076256;28;20234;-82
2023/03/17 02:47:11;;;;;;;2.50;2.17;;;1.90;78.30;;;;;;5077209;28;20526;-87
2023/03/17 02:49:39;;;;;;;2.40;2.20;;;2.00;78.10;;;;;;5084002;28;20182;-85
2023/03/17 02:52:06;;;;;;;2.80;2.30;;;2.00;78.20;;;;;;5063535;28;20221;-73
2023/03/17 02:54:31;;;;;;;2.70;2.50;;;2.10;78.40;;;;;;5076101;28;20232;-73
2023/03/17 02:56:58;;;;;;;3.13;2.37;;;2.00;78.00;;;;;;5076112;28;20739;-83
2023/03/17 02:59:25;;;;;;;4.13;2.20;;;2.10;78.00;;;;;;5090389;28;20256;-83
2023/03/17 03:01:51;;;;;;;3.17;2.57;;;2.00;77.80;;;;;;5077892;28;20217;-86
2023/03/17 03:04:18;;;;;;;2.67;2.47;;;2.00;77.90;;;;;;5074857;28;20237;-86
2023/03/17 03:06:44;;;;;;;2.37;2.27;;;2.00;78.00;;;;;;5075233;28;20686;-85
2023/03/17 03:09:10;;;;;;;2.70;2.50;;;2.00;78.00;;;;;;5074970;28;20200;-88
2023/03/17 03:11:37;;;;;;;4.73;2.30;;;2.00;77.80;;;;;;5056346;28;20208;-83
2023/03/17 03:14:03;;;;;;;3.17;2.67;;;2.00;77.90;;;;;;5073591;28;20661;-78
2023/03/17 03:16:29;;;;;;;3.80;2.53;;;2.00;78.20;;;;;;5073436;28;20657;-73
2023/03/17 03:18:55;;;;;;;2.73;2.53;;;2.00;78.00;;;;;;5074016;28;20178;-73
2023/03/17 03:21:21;;;;;;;2.93;2.40;;;1.90;78.40;;;;;;5074235;28;20186;-74
2023/03/17 03:23:47;;;;;;;4.20;2.43;;;2.00;78.40;;;;;;5075062;28;20235;-76
2023/03/17 03:26:13;;;;;;;3.00;2.50;;;2.00;78.60;;;;;;5058779;28;20186;-85
2023/03/17 03:28:38;;;;;;;2.70;2.50;;;2.00;78.20;;;;;;5077013;28;20175;-77
2023/03/17 03:31:05;;;;;;;2.90;2.50;;;1.80;78.20;;;;;;5074263;28;20220;-84
2023/03/17 03:33:30;;;;;;;2.27;2.17;;;1.80;78.30;;;;;;5078449;28;20172;-84
2023/03/17 03:35:56;;;;;;;2.53;2.33;;;1.80;78.20;;;;;;5075351;28;20587;-86
2023/03/17 03:38:22;;;;;;;2.63;2.40;;;1.80;78.30;;;;;;5057075;28;20191;-82
2023/03/17 03:40:48;;;;;;;2.47;2.33;;;1.80;78.30;;;;;;5081852;28;20238;-75
2023/03/17 03:43:14;;;;;;;2.50;2.30;;;1.80;78.40;;;;;;5099547;28;20192;-81
2023/03/17 03:45:40;;;;;;;2.40;2.20;;;1.80;78.80;;;;;;5094668;28;20634;-81
2023/03/17 03:48:06;;;;;;;5.07;2.40;;;1.90;78.80;;;;;;5093774;28;20199;-77
2023/03/17 03:50:32;;;;;;;2.70;2.50;;;1.90;78.90;;;;;;5093906;28;20288;-74
2023/03/17 03:52:58;;;;;;;2.53;2.30;;;2.10;78.80;;;;;;5094340;28;20612;-80
2023/03/17 03:55:24;;;;;;;2.50;2.27;;;2.00;78.80;;;;;;5099989;28;20233;-84
2023/03/17 03:57:49;;;;;;;2.90;2.70;;;1.90;78.80;;;;;;5088858;28;20208;-82
2023/03/17 04:00:16;;;;;;;3.60;3.00;;;1.90;78.70;;;;;;5112521;28;20177;-83
2023/03/17 04:02:44;;;;;;;3.17;2.80;;;1.80;78.80;;;;;;5108313;28;20181;-85
2023/03/17 04:05:10;;;;;;;3.23;2.63;;;1.70;79.10;;;;;;5097044;28;20204;-82
2023/03/17 04:07:36;;;;;;;2.70;2.50;;;1.70;79.00;;;;;;5094386;28;20193;-83
2023/03/17 04:10:02;;;;;;;4.37;2.50;;;1.60;79.20;;;;;;5094533;28;20185;-83
2023/03/17 04:12:28;;;;;;;3.33;2.90;;;1.60;79.40;;;;;;5096393;28;20224;-86
2023/03/17 04:14:54;;;;;;;2.53;2.33;;;1.50;79.60;;;;;;5098392;28;20260;-83
2023/03/17 04:17:20;;;;;;;3.83;2.80;;;1.60;80.00;;;;;;5095261;28;20189;-77
2023/03/17 04:19:46;;;;;;;3.83;2.57;;;1.70;79.70;;;;;;5101256;28;20228;-74
2023/03/17 04:22:12;;;;;;;3.10;2.43;;;1.60;79.70;;;;;;5100836;28;20201;-86
2023/03/17 04:24:38;;;;;;;2.63;2.43;;;1.50;80.00;;;;;;5093828;28;20206;-85
2023/03/17 04:27:04;;;;;;;2.80;2.50;;;1.40;80.10;;;;;;5093783;28;20663;-87
2023/03/17 04:29:30;;;;;;;2.87;2.37;;;1.30;80.00;;;;;;5095499;28;20260;-88
2023/03/17 04:31:56;;;;;;;2.77;2.47;;;1.40;80.10;;;;;;5093524;28;20222;-83
2023/03/17 04:34:23;;;;;;;2.93;2.60;;;1.30;79.80;;;;;;5104827;28;20180;-84
2023/03/17 04:36:48;;;;;;;2.90;2.70;;;1.40;80.00;;;;;;5093541;28;20182;-87
2023/03/17 04:39:15;;;;;;;4.00;2.67;;;1.40;80.30;;;;;;5093699;28;20201;-86
2023/03/17 04:41:41;;;;;;;2.30;2.17;;;1.30;80.00;;;;;;5075536;28;20191;-86
2023/03/17 04:44:07;;;;;;;2.60;2.40;;;1.20;80.30;;;;;;5093627;28;20307;-84
2023/03/17 04:46:33;;;;;;;2.77;2.53;;;1.10;80.60;;;;;;5093774;28;20175;-84
2023/03/17 04:49:00;;;;;;;2.93;2.47;;;1.10;80.90;;;;;;5093300;28;20181;-72
2023/03/17 04:51:26;;;;;;;2.90;2.60;;;1.20;80.60;;;;;;5093011;28;20241;-86
2023/03/17 04:53:52;;;;;;;4.07;2.80;;;1.10;80.50;;;;;;5093788;28;20201;-85
2023/03/17 04:56:18;;;;;;;2.67;2.47;;;1.20;80.70;;;;;;5092869;28;20184;-83
2023/03/17 04:58:44;;;;;;;3.23;2.57;;;1.40;80.50;;;;;;5093218;28;20177;-85
2023/03/17 05:01:10;;;;;;;3.40;2.67;;;1.30;80.20;;;;;;5093229;28;20205;-87
2023/03/17 05:03:36;;;;;;;3.53;2.73;;;1.40;80.40;;;;;;5093121;28;20211;-87
2023/03/17 05:06:03;;;;;;;5.23;3.00;;;1.40;80.70;;;;;;5092830;28;20238;-84
2023/03/17 05:08:29;;;;;;;3.70;3.23;;;1.40;80.60;;;;;;5099835;28;20179;-82
2023/03/17 05:10:56;;;;;;;2.70;2.50;;;1.50;80.60;;;;;;5092423;28;20206;-76
2023/03/17 05:13:22;;;;;;;3.30;2.97;;;1.50;80.50;;;;;;5092832;28;20212;-75
2023/03/17 05:15:50;;;;;;;3.93;2.67;;;1.60;80.40;;;;;;5074111;28;20179;-75
2023/03/17 05:18:17;;;;;;;3.00;2.80;;;1.60;80.70;;;;;;5093110;28;20178;-74
2023/03/17 05:20:43;;;;;;;2.83;2.43;;;1.60;80.90;;;;;;5098476;28;20195;-73
2023/03/17 05:23:09;;;;;;;2.73;2.57;;;1.60;81.00;;;;;;5092575;28;20176;-74
2023/03/17 05:25:35;;;;;;;3.43;3.13;;;1.70;80.60;;;;;;5091899;28;20167;-75
2023/03/17 05:28:01;;;;;;;2.67;2.47;;;1.50;81.30;;;;;;5092753;28;20186;-73
2023/03/17 05:30:27;;;;;;;4.53;3.03;;;1.50;81.70;;;;;;5092162;28;20177;-75
2023/03/17 05:32:53;;;;;;;3.43;3.13;;;1.40;81.10;;;;;;5092450;28;20180;-73
2023/03/17 05:35:19;;;;;;;4.67;3.40;;;1.40;81.00;;;;;;5099305;28;20184;-76
2023/03/17 05:37:45;;;;;;;3.00;2.80;;;1.50;81.00;;;;;;5100168;28;20184;-84
2023/03/17 05:40:13;;;;;;;3.33;3.03;;;1.60;81.20;;;;;;5093976;28;20251;-85
2023/03/17 05:42:40;;;;;;;4.17;3.00;;;1.70;81.00;;;;;;5095378;28;20199;-87
2023/03/17 05:45:07;;;;;;;4.60;3.00;;;1.70;80.90;;;;;;5096357;28;20231;-79
2023/03/17 05:47:32;;;;;;;4.47;3.17;;;1.60;81.10;;;;;;5096665;28;20235;-76
2023/03/17 05:49:59;;;;;;;4.43;3.37;;;1.60;81.40;;;;;;5097414;28;20628;-85
2023/03/17 05:52:26;;;;;;;5.23;2.97;;;1.70;81.20;;;;;;5110080;28;20212;-79
2023/03/17 05:54:53;;;;;;;5.73;3.77;;;1.80;81.00;;;;;;5083939;28;20605;-86
2023/03/17 05:57:21;;;;;;;3.43;3.10;;;1.90;81.20;;;;;;5101225;28;20187;-84
2023/03/17 05:59:47;;;;;;;4.23;3.43;;;1.90;81.10;;;;;;5101839;28;20184;-85
2023/03/17 06:02:13;;;;;;;7.67;3.17;;;1.90;81.00;;;;;;5102764;28;20173;-85
2023/03/17 06:04:39;;;;;;;3.03;2.80;;;1.80;80.90;;;;;;5108462;28;20195;-80
2023/03/17 06:07:05;;;;;;;4.33;3.23;;;1.60;81.10;;;;;;5109284;28;20177;-84
2023/03/17 06:09:32;;;;;;;4.67;3.27;;;1.80;81.20;;;;;;5097988;28;20200;-83
2023/03/17 06:11:59;;;;;;;3.50;3.20;;;1.90;80.80;;;;;;5096057;28;20566;-86
2023/03/17 06:14:25;;;;;;;3.93;3.33;;;2.00;80.90;;;;;;5096979;28;20676;-83
2023/03/17 06:16:51;;;;;;;4.70;3.33;;;2.00;80.50;;;;;;5097038;28;20178;-85
2023/03/17 06:19:17;;;;;;;3.23;2.93;;;2.00;80.90;;;;;;5097263;28;20176;-84
2023/03/17 06:21:43;;;;;;;3.33;3.03;;;2.10;81.60;;;;;;5099521;28;20169;-86
2023/03/17 06:24:10;;;;;;;6.07;3.00;;;2.30;80.60;;;;;;5097015;28;20502;-83
2023/03/17 06:26:36;;;;;;;3.03;2.80;;;2.40;80.60;;;;;;5096672;28;20180;-84
2023/03/17 06:29:08;;;;;;;3.37;3.07;;;2.60;80.70;;;;;;5096150;28;20185;-84
2023/03/17 06:31:35;;;;;;;3.37;3.07;;;2.60;79.80;;;;;;5096162;28;20234;-80
2023/03/17 06:34:01;;;;;;;3.40;3.20;;;2.70;80.70;;;;;;5065299;28;20187;-82
2023/03/17 06:36:26;;;;;;;6.73;3.87;;;2.90;80.10;;;;;;5074873;28;20182;-86
2023/03/17 06:38:52;;;;;;;5.93;3.13;;;3.00;79.20;;;;;;5076538;28;20229;-87
2023/03/17 06:41:18;;;;;;;4.10;2.80;;;3.10;78.40;;;;;;5076132;28;20678;-80
2023/03/17 06:43:44;;;;;;;5.50;2.80;;;3.20;77.20;;;;;;5077956;28;20306;-76
2023/03/17 06:46:10;;;;;;;4.43;2.90;;;3.30;77.80;;;;;;5085762;28;20181;-76
2023/03/17 06:48:35;;;;;;;6.87;4.33;;;3.40;76.70;;;;;;5075670;28;20202;-74
2023/03/17 06:51:01;;;;;;;7.27;3.70;;;3.50;76.40;;;;;;5075987;28;20574;-83
2023/03/17 06:53:27;;;;;;;6.43;3.40;;;3.60;77.10;;;;;;5075233;28;20266;-82
2023/03/17 06:55:53;;;;;;;4.50;3.20;;;3.70;77.20;;;;;;5078421;28;20182;-78
2023/03/17 06:58:19;;;;;;;4.83;3.27;;;3.90;76.40;;;;;;5090127;28;20212;-79
2023/03/17 07:00:47;;;;;;;2.93;2.73;;;4.00;76.50;;;;;;5085204;28;20185;-83
2023/03/17 07:03:14;;;;;;;3.43;3.10;;;4.10;76.60;;;;;;5079922;28;20230;-86
2023/03/17 07:05:41;;;;;;;3.10;2.87;;;4.20;76.70;;;;;;5077235;28;20175;-85
2023/03/17 07:08:07;;;;;;;4.97;2.67;;;4.30;74.90;;;;;;5077998;28;20587;-79
2023/03/17 07:10:35;;;;;;;3.03;2.73;;;4.40;74.40;;;;;;5082754;28;20210;-73
2023/03/17 07:13:01;;;;;;;3.57;3.10;;;4.50;74.30;;;;;;5080267;28;20187;-81
2023/03/17 07:15:30;;;;;;;3.43;2.87;;;4.50;75.10;;;;;;5042265;28;20184;-76
2023/03/17 07:17:56;;;;;;;5.73;2.63;;;4.60;73.60;;;;;;5076792;28;20568;-78
2023/03/17 07:20:22;;;;;;;4.63;2.73;;;4.70;73.40;;;;;;5075859;28;20171;-82
2023/03/17 07:22:48;;;;;;;2.97;2.70;;;4.80;73.20;;;;;;5076699;28;20183;-84
2023/03/17 07:25:14;;;;;;;3.80;3.37;;;4.90;72.30;;;;;;5063736;28;20180;-82
2023/03/17 07:27:40;;;;;;;3.30;3.03;;;5.00;72.80;;;;;;5082281;28;20262;-80
2023/03/17 07:30:06;;;;;;;5.53;3.10;;;5.10;72.30;;;;;;5076232;28;20198;-86
2023/03/17 07:32:34;;;;;;;3.73;3.37;;;5.20;73.10;;;;;;5077440;28;20211;-80
2023/03/17 07:34:59;;;;;;;4.27;3.13;;;5.30;72.10;;;;;;5082272;28;20166;-85
2023/03/17 07:37:28;;;;;;;4.03;3.00;;;5.40;72.80;;;;;;5083091;28;20209;-85
2023/03/17 07:39:53;;;;;;;5.70;3.10;;;5.50;72.90;;;;;;5076503;28;20168;-81
2023/03/17 07:42:20;;;;;;;7.43;3.00;;;5.60;72.30;;;;;;5058304;28;20274;-79
2023/03/17 07:44:46;;;;;;;6.20;3.20;;;5.70;73.00;;;;;;5076013;28;20304;-81
2023/03/17 07:47:12;;;;;;;3.27;2.93;;;5.70;73.70;;;;;;5094586;28;20172;-83
2023/03/17 07:49:38;;;;;;;3.40;3.10;;;5.90;77.40;;;;;;5094342;28;20260;-81
2023/03/17 07:52:04;;;;;;;3.60;2.93;;;6.00;76.90;;;;;;5095855;28;20290;-82
2023/03/17 07:54:31;;;;;;;5.10;3.50;;;6.10;74.30;;;;;;5097882;28;20203;-83
2023/03/17 07:56:56;;;;;;;5.77;4.00;;;6.20;74.60;;;;;;5096003;28;20175;-85
2023/03/17 07:59:22;;;;;;;7.40;3.90;;;6.30;80.10;;;;;;5094897;28;20247;-77
2023/03/17 08:01:49;;;;;;;5.23;3.87;;;6.40;84.00;;;;;;5094910;28;20212;-83
2023/03/17 08:04:15;;;;;;;4.20;3.80;;;6.50;79.20;;;;;;5093906;28;20257;-82
2023/03/17 08:06:41;;;;;;;10.43;4.17;;;6.60;78.40;;;;;;5095350;28;20204;-80
2023/03/17 08:09:09;;;;;;;4.53;3.83;;;6.60;78.80;;;;;;5095552;28;20174;-75
2023/03/17 08:11:36;;;;;;;5.97;4.10;;;6.60;74.50;;;;;;5093497;28;20209;-75
2023/03/17 08:14:03;;;;;;;4.77;4.10;;;6.50;76.30;;;;;;5093478;28;20171;-75
2023/03/17 08:16:29;;;;;;;4.10;3.70;;;6.50;73.70;;;;;;5093297;28;20258;-75
2023/03/17 08:18:57;;;;;;;3.60;3.20;;;6.30;75.30;;;;;;5108917;28;20198;-75
2023/03/17 08:21:25;;;;;;;4.43;3.37;;;6.20;73.40;;;;;;5093886;28;20244;-83
2023/03/17 08:23:51;;;;;;;5.20;3.50;;;6.00;72.80;;;;;;5094284;28;20182;-84
2023/03/17 08:26:17;;;;;;;4.43;4.03;;;5.90;77.60;;;;;;5093833;28;20171;-82
2023/03/17 08:28:43;;;;;;;4.37;3.87;;;5.70;74.50;;;;;;5094154;28;20181;-82
2023/03/17 08:31:18;;;;;;;4.33;4.00;;;5.70;76.60;;;;;;5094214;28;20215;-82
2023/03/17 08:33:49;;;;;;;5.83;3.93;;;5.70;76.90;;;;;;5095524;28;20556;-83
2023/03/17 08:36:17;;;;;;;5.00;4.47;;;5.80;75.00;;;;;;5099052;28;20654;-84
2023/03/17 08:38:45;;;;;;;6.23;4.77;;;5.70;75.20;;;;;;5105018;28;20168;-81
2023/03/17 08:41:13;;;;;;;9.87;3.93;;;5.80;74.00;;;;;;5098146;28;20220;-85
2023/03/17 08:43:40;;;;;;;6.90;4.50;;;5.80;74.00;;;;;;5094580;28;20564;-82
2023/03/17 08:46:25;;;;;;;6.63;4.77;;;5.80;72.80;;;;;;5076133;28;20579;-84
2023/03/17 08:48:53;;;;;;;8.43;4.57;;;5.70;74.80;;;;;;5056756;28;20740;-82
2023/03/17 08:51:21;;;;;;;5.70;4.70;;;5.80;73.60;;;;;;5056885;28;20313;-81
2023/03/17 08:53:47;;;;;;;5.50;4.43;;;5.90;74.20;;;;;;5074942;28;20191;-82
2023/03/17 08:56:14;;;;;;;7.93;4.70;;;6.00;76.00;;;;;;5079667;28;20624;-82
2023/03/17 08:58:41;;;;;;;7.63;4.43;;;6.20;76.70;;;;;;5081269;28;20188;-76
2023/03/17 09:01:09;;;;;;;6.10;4.60;;;6.30;76.40;;;;;;5055712;28;20183;-83
2023/03/17 09:03:37;;;;;;;6.83;4.30;;;6.40;77.10;;;;;;5073606;28;20263;-85
2023/03/17 09:06:05;;;;;;;7.03;4.80;;;6.50;75.00;;;;;;5079030;28;20201;-77
2023/03/17 09:08:33;;;;;;;6.30;3.90;;;6.60;73.30;;;;;;5079025;28;20692;-85
2023/03/17 09:11:00;;;;;;;6.70;3.97;;;6.70;73.40;;;;;;5073457;28;20294;-84
2023/03/17 09:13:26;;;;;;;5.13;4.03;;;6.80;71.70;;;;;;5073419;28;20164;-76
2023/03/17 09:15:53;;;;;;;6.13;4.53;;;6.90;72.20;;;;;;5055266;28;20178;-83
2023/03/17 09:18:19;;;;;;;6.73;3.67;;;7.00;72.00;;;;;;5054427;28;20263;-79
2023/03/17 09:20:45;;;;;;;7.07;4.20;;;7.00;70.70;;;;;;5055608;28;20184;-83
2023/03/17 09:23:12;;;;;;;7.37;4.40;;;7.10;69.70;;;;;;5073679;28;20178;-78
2023/03/17 09:25:40;;;;;;;5.40;4.20;;;7.20;70.00;;;;;;5072993;28;20189;-75
2023/03/17 09:28:08;;;;;;;5.93;3.90;;;7.30;68.10;;;;;;5073197;28;20211;-84
2023/03/17 09:30:34;;;;;;;4.33;4.00;;;7.20;68.60;;;;;;5073187;28;20177;-85
2023/03/17 09:33:00;;;;;;;5.77;3.97;;;7.30;68.50;;;;;;5072702;28;20179;-86
2023/03/17 09:35:30;;;;;;;5.33;4.30;;;7.30;69.20;;;;;;5073140;28;20241;-85
2023/03/17 09:37:56;;;;;;;5.70;3.80;;;7.30;68.90;;;;;;5074805;28;20325;-80
2023/03/17 09:40:31;;;;;;;4.13;3.60;;;7.40;68.20;;;;;;5056259;28;20214;-83
2023/03/17 09:43:10;;;;;;;6.27;3.90;;;7.50;67.40;;;;;;5073435;28;20649;-80
2023/03/17 09:45:39;;;;;;;7.90;3.80;;;7.70;68.20;;;;;;5072616;28;20233;-76
2023/03/17 09:48:16;;;;;;;8.20;4.07;;;7.70;68.20;;;;;;5072828;28;20179;-77
2023/03/17 09:50:55;;;;;;;4.77;3.60;;;7.70;68.20;;;;;;5073874;28;20165;-83
2023/03/17 09:53:26;;;;;;;4.73;3.57;;;7.90;67.70;;;;;;5073448;28;20538;-78
2023/03/17 09:55:57;;;;;;;5.63;3.67;;;7.90;67.30;;;;;;5073040;28;20170;-81
2023/03/17 09:58:32;;;;;;;5.03;3.43;;;7.90;66.60;;;;;;5073057;28;20628;-79
2023/03/17 10:01:00;;;;;;;4.00;3.60;;;8.10;67.40;;;;;;5073108;28;20171;-83
2023/03/17 10:03:26;;;;;;;3.73;3.43;;;8.10;66.70;;;;;;5073240;28;20199;-83
2023/03/17 10:05:57;;;;;;;4.37;4.00;;;8.20;66.30;;;;;;5073680;28;20171;-81
2023/03/17 10:08:32;;;;;;;4.67;4.00;;;8.30;65.50;;;;;;5074527;28;20163;-79
2023/03/17 10:11:22;;;;;;;5.10;3.70;;;8.30;65.60;;;;;;5079462;28;20211;-80
2023/03/17 10:14:25;;;;;;;6.33;3.40;;;8.30;66.20;;;;;;5084267;28;20172;-78
2023/03/17 10:17:00;;;;;;;4.30;3.53;;;8.30;65.10;;;;;;4976005;28;20281;-79
2023/03/17 10:19:37;;;;;;;4.20;3.70;;;8.50;65.50;;;;;;4974235;28;20389;-78
2023/03/17 10:22:22;;;;;;;3.47;3.20;;;8.60;67.10;;;;;;4983381;28;20177;-78
2023/03/17 10:24:55;;;;;;;4.47;3.50;;;8.70;67.20;;;;;;4974269;28;20190;-79
2023/03/17 10:27:21;;;;;;;6.67;3.53;;;8.80;66.80;;;;;;4983356;28;20188;-82
2023/03/17 10:29:47;;;;;;;3.87;3.57;;;8.70;66.50;;;;;;4983853;28;20678;-79
2023/03/17 10:32:13;;;;;;;3.73;3.43;;;8.70;66.70;;;;;;4976371;28;20268;-78
2023/03/17 10:34:40;;;;;;;3.97;3.50;;;8.70;68.10;;;;;;4959145;28;20654;-76
2023/03/17 10:37:11;;;;;;;4.17;3.70;;;8.70;68.30;;;;;;4975595;28;20225;-83
2023/03/17 10:39:50;;;;;;;5.60;3.57;;;8.70;67.60;;;;;;4987493;28;20246;-79
2023/03/17 10:42:27;;;;;;;4.17;3.50;;;8.60;67.60;;;;;;4977228;28;20183;-81
2023/03/17 10:45:16;;;;;;;4.27;3.63;;;8.60;67.60;;;;;;4982112;28;20229;-84
2023/03/17 10:47:49;;;;;;;4.30;3.50;;;8.60;67.30;;;;;;5012582;28;20186;-83
2023/03/17 10:50:21;;;;;;;4.17;3.77;;;8.70;66.20;;;;;;5021962;28;20269;-84
2023/03/17 10:52:53;;;;;;;3.70;3.40;;;8.70;66.30;;;;;;5095716;28;20255;-82
2023/03/17 10:55:22;;;;;;;6.53;3.57;;;8.80;66.30;;;;;;5095820;28;20173;-82
2023/03/17 10:58:03;;;;;;;3.67;3.23;;;8.70;66.70;;;;;;5094060;28;20179;-86
2023/03/17 11:00:35;;;;;;;2.97;2.77;;;8.70;66.30;;;;;;5096574;28;20226;-86
2023/03/17 11:03:15;;;;;;;3.77;3.07;;;8.80;66.80;;;;;;5095972;28;20155;-85
2023/03/17 11:06:01;;;;;;;3.43;3.13;;;8.80;65.70;;;;;;5095583;28;20165;-78
2023/03/17 11:08:34;;;;;;;3.73;2.83;;;8.90;65.10;;;;;;5095355;28;20170;-85
2023/03/17 11:11:05;;;;;;;4.57;3.50;;;9.00;65.80;;;;;;5095335;28;20214;-80
2023/03/17 11:13:31;;;;;;;7.87;6.70;;;9.00;64.30;;;;;;5097498;28;20185;-81
2023/03/17 11:16:16;;;;;;;7.20;5.30;;;9.20;64.20;;;;;;5095427;28;20272;-83
2023/03/17 11:18:42;;;;;;;3.30;3.00;;;9.20;64.40;;;;;;5096627;28;20161;-82
2023/03/17 11:21:17;;;;;;;5.17;2.90;;;9.20;64.60;;;;;;5095346;28;20190;-86
2023/03/17 11:23:57;;;;;;;5.63;2.90;;;9.20;63.40;;;;;;5094466;28;20170;-85
2023/03/17 11:26:39;;;;;;;4.30;3.13;;;9.20;63.20;;;;;;5099682;28;20185;-84
2023/03/17 11:29:21;;;;;;;3.60;2.70;;;9.30;64.10;;;;;;5097629;28;20182;-82
2023/03/17 11:32:15;;;;;;;2.60;2.50;;;9.40;62.90;;;;;;5095624;28;20205;-84
2023/03/17 11:34:57;;;;;;;3.23;2.50;;;9.50;61.80;;;;;;5093610;28;20187;-81
2023/03/17 11:38:05;;;;;;;2.97;2.70;;;9.50;62.00;;;;;;5095027;28;20198;-84
2023/03/17 11:40:57;;;;;;;2.53;2.43;;;9.60;62.60;;;;;;5093442;28;20172;-76
2023/03/17 11:44:17;;;;;;;2.93;2.67;;;9.60;62.30;;;;;;5060412;28;20178;-76
2023/03/17 11:46:47;;;;;;;3.00;2.80;;;9.70;60.80;;;;;;5012327;28;20200;-78
2023/03/17 11:49:23;;;;;;;5.37;3.40;;;9.70;60.70;;;;;;5012443;28;20228;-75
2023/03/17 11:51:55;;;;;;;3.13;2.90;;;9.60;60.00;;;;;;5021049;28;20255;-76
2023/03/17 11:54:29;;;;;;;3.20;2.60;;;9.60;60.90;;;;;;5020843;28;20192;-77
2023/03/17 11:57:00;;;;;;;3.53;3.23;;;9.60;60.90;;;;;;5030821;28;20211;-75
2023/03/17 11:59:44;;;;;;;3.00;2.77;;;9.60;61.60;;;;;;5016611;28;20219;-78
2023/03/17 12:02:19;;;;;;;3.30;3.00;;;9.70;61.20;;;;;;5025864;28;20190;-80
2023/03/17 12:05:06;;;;;;;3.93;3.17;;;9.70;61.00;;;;;;5015910;28;20193;-85
2023/03/17 12:07:37;;;;;;;3.93;3.50;;;9.70;60.30;;;;;;5014532;28;20183;-86
2023/03/17 12:10:18;;;;;;;3.37;3.07;;;9.60;59.70;;;;;;5014071;28;20161;-85
2023/03/17 12:12:52;;;;;;;4.73;2.77;;;9.60;59.90;;;;;;5017436;28;20259;-85
2023/03/17 12:15:33;;;;;;;3.83;3.00;;;9.60;60.10;;;;;;5018675;28;20181;-82
2023/03/17 12:18:05;;;;;;;3.50;3.20;;;9.70;60.50;;;;;;5019799;28;20166;-82
2023/03/17 12:20:57;;;;;;;3.20;3.00;;;9.80;61.60;;;;;;5050850;28;20183;-81
2023/03/17 12:23:44;;;;;;;3.43;3.23;;;9.90;61.20;;;;;;5086437;28;20182;-84
2023/03/17 12:26:14;;;;;;;3.83;2.80;;;10.00;59.60;;;;;;5096051;28;20170;-84
2023/03/17 12:28:53;;;;;;;3.37;3.17;;;9.90;59.70;;;;;;5095432;28;20169;-86
2023/03/17 12:31:33;;;;;;;3.60;3.30;;;10.00;59.40;;;;;;5094450;28;20206;-87
2023/03/17 12:34:20;;;;;;;3.40;3.03;;;10.00;60.00;;;;;;5094324;28;20152;-86
2023/03/17 12:36:47;;;;;;;5.53;3.40;;;10.20;58.60;;;;;;5093806;28;20248;-79
2023/03/17 12:39:29;;;;;;;4.73;3.33;;;10.20;59.60;;;;;;5094095;28;20168;-79
2023/03/17 12:42:01;;;;;;;6.97;3.80;;;10.10;59.80;;;;;;5093596;28;20155;-79
2023/03/17 12:44:45;;;;;;;4.03;3.63;;;10.20;59.70;;;;;;5084764;28;20321;-85
2023/03/17 12:47:35;;;;;;;4.20;3.80;;;10.30;59.40;;;;;;5073542;28;20173;-83
2023/03/17 12:50:26;;;;;;;4.20;3.53;;;10.30;59.80;;;;;;5074004;28;20169;-76
2023/03/17 12:52:58;;;;;;;4.50;4.03;;;10.30;60.20;;;;;;5028161;28;20224;-80
2023/03/17 12:55:26;;;;;;;7.43;4.60;;;10.30;60.70;;;;;;5075009;28;20227;-82
2023/03/17 12:58:02;;;;;;;4.47;3.70;;;10.40;60.70;;;;;;5073135;28;20715;-84
2023/03/17 13:00:30;;;;;;;6.57;3.80;;;10.50;60.60;;;;;;5073668;28;20650;-78
2023/03/17 13:03:32;;;;;;;5.60;3.90;;;10.50;60.50;;;;;;5073757;28;20176;-80
2023/03/17 13:06:03;;;;;;;4.57;4.13;;;10.50;60.50;;;;;;4972709;28;20185;-85
2023/03/17 13:08:32;;;;;;;4.40;4.00;;;10.50;61.00;;;;;;4972228;28;20611;-84